sensor_id;sensor_type;location;lat;lon;timestamp;temperature;humidity
23147;DHT22;11742;53.532;-1.478;2023-05-15T00:02:00;19.20;70.20
23147;DHT22;11742;53.532;-1.478;2023-05-15T00:04:45;19.20;70.20
23147;DHT22;11742;53.532;-1.478;2023-05-15T00:07:29;19.10;70.20
23147;DHT22;11742;53.532;-1.478;2023-05-15T00:10:14;19.10;70.20
23147;DHT22;11742;53.532;-1.478;2023-05-15T00:12:58;19.10;70.10
23147;DHT22;11742;53.532;-1.478;2023-05-15T00:15:42;19.00;70.20
23147;DHT22;11742;53.532;-1.478;2023-05-15T00:18:26;19.00;70.20
23147;DHT22;11742;53.532;-1.478;2023-05-15T00:21:10;18.90;70.10
23147;DHT22;11742;53.532;-1.478;2023-05-15T00:23:55;18.90;70.10
23147;DHT22;11742;53.532;-1.478;2023-05-15T00:26:41;18.80;70.10
23147;DHT22;11742;53.532;-1.478;2023-05-15T00:29:25;18.80;70.10
23147;DHT22;11742;53.532;-1.478;2023-05-15T00:32:09;18.80;70.10
23147;DHT22;11742;53.532;-1.478;2023-05-15T00:34:54;18.70;70.00
23147;DHT22;11742;53.532;-1.478;2023-05-15T00:37:38;18.70;70.00
23147;DHT22;11742;53.532;-1.478;2023-05-15T00:40:23;18.60;70.00
23147;DHT22;11742;53.532;-1.478;2023-05-15T00:43:07;18.60;70.00
23147;DHT22;11742;53.532;-1.478;2023-05-15T00:45:51;18.60;70.10
23147;DHT22;11742;53.532;-1.478;2023-05-15T00:48:36;18.50;70.00
23147;DHT22;11742;53.532;-1.478;2023-05-15T00:51:20;18.50;70.00
23147;DHT22;11742;53.532;-1.478;2023-05-15T00:54:04;18.40;69.90
23147;DHT22;11742;53.532;-1.478;2023-05-15T00:56:49;18.40;70.00
23147;DHT22;11742;53.532;-1.478;2023-05-15T00:59:34;18.40;70.00
23147;DHT22;11742;53.532;-1.478;2023-05-15T01:02:19;18.30;69.80
23147;DHT22;11742;53.532;-1.478;2023-05-15T01:05:04;18.30;69.90
23147;DHT22;11742;53.532;-1.478;2023-05-15T01:10:53;18.20;69.80
23147;DHT22;11742;53.532;-1.478;2023-05-15T01:13:38;18.20;69.90
23147;DHT22;11742;53.532;-1.478;2023-05-15T01:16:22;18.10;69.70
23147;DHT22;11742;53.532;-1.478;2023-05-15T01:19:07;18.10;69.70
23147;DHT22;11742;53.532;-1.478;2023-05-15T01:21:56;18.00;69.60
23147;DHT22;11742;53.532;-1.478;2023-05-15T01:27:50;17.90;69.50
23147;DHT22;11742;53.532;-1.478;2023-05-15T01:30:37;17.90;69.50
23147;DHT22;11742;53.532;-1.478;2023-05-15T01:33:24;17.90;69.40
23147;DHT22;11742;53.532;-1.478;2023-05-15T01:36:14;17.80;69.40
23147;DHT22;11742;53.532;-1.478;2023-05-15T01:39:00;17.70;69.30
23147;DHT22;11742;53.532;-1.478;2023-05-15T01:41:45;17.70;69.20
23147;DHT22;11742;53.532;-1.478;2023-05-15T01:44:37;17.70;69.20
23147;DHT22;11742;53.532;-1.478;2023-05-15T01:47:25;17.60;69.10
23147;DHT22;11742;53.532;-1.478;2023-05-15T01:50:14;17.60;69.10
23147;DHT22;11742;53.532;-1.478;2023-05-15T01:52:59;17.50;69.00
23147;DHT22;11742;53.532;-1.478;2023-05-15T01:55:44;17.50;69.00
23147;DHT22;11742;53.532;-1.478;2023-05-15T01:58:28;17.40;69.00
23147;DHT22;11742;53.532;-1.478;2023-05-15T02:01:14;17.40;69.00
23147;DHT22;11742;53.532;-1.478;2023-05-15T02:04:01;17.40;69.10
23147;DHT22;11742;53.532;-1.478;2023-05-15T02:06:46;17.30;69.00
23147;DHT22;11742;53.532;-1.478;2023-05-15T02:09:33;17.30;69.00
23147;DHT22;11742;53.532;-1.478;2023-05-15T02:12:18;17.20;69.00
23147;DHT22;11742;53.532;-1.478;2023-05-15T02:15:04;17.20;69.00
23147;DHT22;11742;53.532;-1.478;2023-05-15T02:17:49;17.20;69.00
23147;DHT22;11742;53.532;-1.478;2023-05-15T02:20:33;17.10;68.90
23147;DHT22;11742;53.532;-1.478;2023-05-15T02:23:17;17.00;68.90
23147;DHT22;11742;53.532;-1.478;2023-05-15T02:28:53;17.00;69.00
23147;DHT22;11742;53.532;-1.478;2023-05-15T02:37:34;16.90;69.00
23147;DHT22;11742;53.532;-1.478;2023-05-15T02:40:18;16.80;68.90
23147;DHT22;11742;53.532;-1.478;2023-05-15T02:43:03;16.70;68.90
23147;DHT22;11742;53.532;-1.478;2023-05-15T02:45:47;16.70;68.90
23147;DHT22;11742;53.532;-1.478;2023-05-15T02:48:33;16.70;68.90
23147;DHT22;11742;53.532;-1.478;2023-05-15T02:51:17;16.60;68.90
23147;DHT22;11742;53.532;-1.478;2023-05-15T02:54:01;16.60;68.90
23147;DHT22;11742;53.532;-1.478;2023-05-15T02:56:45;16.60;68.90
23147;DHT22;11742;53.532;-1.478;2023-05-15T02:59:30;16.50;68.90
23147;DHT22;11742;53.532;-1.478;2023-05-15T03:02:14;16.50;68.90
23147;DHT22;11742;53.532;-1.478;2023-05-15T03:04:58;16.40;68.90
23147;DHT22;11742;53.532;-1.478;2023-05-15T03:07:42;16.40;68.90
23147;DHT22;11742;53.532;-1.478;2023-05-15T03:10:27;16.30;68.90
23147;DHT22;11742;53.532;-1.478;2023-05-15T03:13:11;16.30;68.90
23147;DHT22;11742;53.532;-1.478;2023-05-15T03:15:55;16.30;68.80
23147;DHT22;11742;53.532;-1.478;2023-05-15T03:18:39;16.20;68.70
23147;DHT22;11742;53.532;-1.478;2023-05-15T03:21:24;16.20;68.80
23147;DHT22;11742;53.532;-1.478;2023-05-15T03:24:09;16.20;68.80
23147;DHT22;11742;53.532;-1.478;2023-05-15T03:26:53;16.10;68.70
23147;DHT22;11742;53.532;-1.478;2023-05-15T03:29:37;16.10;68.80
23147;DHT22;11742;53.532;-1.478;2023-05-15T03:32:21;16.00;69.60
23147;DHT22;11742;53.532;-1.478;2023-05-15T03:35:06;16.00;68.70
23147;DHT22;11742;53.532;-1.478;2023-05-15T03:37:50;16.00;68.60
23147;DHT22;11742;53.532;-1.478;2023-05-15T03:40:36;15.90;68.60
23147;DHT22;11742;53.532;-1.478;2023-05-15T03:43:20;15.90;68.70
23147;DHT22;11742;53.532;-1.478;2023-05-15T03:46:05;15.80;68.60
23147;DHT22;11742;53.532;-1.478;2023-05-15T03:48:49;15.80;68.60
23147;DHT22;11742;53.532;-1.478;2023-05-15T03:51:33;15.70;68.60
23147;DHT22;11742;53.532;-1.478;2023-05-15T03:54:18;15.70;68.60
23147;DHT22;11742;53.532;-1.478;2023-05-15T03:57:02;15.70;68.60
23147;DHT22;11742;53.532;-1.478;2023-05-15T03:59:48;15.70;68.60
23147;DHT22;11742;53.532;-1.478;2023-05-15T04:02:32;15.60;68.60
23147;DHT22;11742;53.532;-1.478;2023-05-15T04:05:16;15.60;68.70
23147;DHT22;11742;53.532;-1.478;2023-05-15T04:08:02;15.50;68.70
23147;DHT22;11742;53.532;-1.478;2023-05-15T04:10:46;15.50;68.70
23147;DHT22;11742;53.532;-1.478;2023-05-15T04:13:30;15.40;68.60
23147;DHT22;11742;53.532;-1.478;2023-05-15T04:16:15;15.40;68.70
23147;DHT22;11742;53.532;-1.478;2023-05-15T04:18:59;15.40;68.70
23147;DHT22;11742;53.532;-1.478;2023-05-15T04:21:43;15.40;68.70
23147;DHT22;11742;53.532;-1.478;2023-05-15T04:24:27;15.30;68.70
23147;DHT22;11742;53.532;-1.478;2023-05-15T04:27:12;15.30;68.70
23147;DHT22;11742;53.532;-1.478;2023-05-15T04:29:56;15.30;68.70
23147;DHT22;11742;53.532;-1.478;2023-05-15T04:32:40;15.20;68.80
23147;DHT22;11742;53.532;-1.478;2023-05-15T04:35:25;15.20;68.80
23147;DHT22;11742;53.532;-1.478;2023-05-15T04:38:09;15.10;68.80
23147;DHT22;11742;53.532;-1.478;2023-05-15T04:40:53;15.10;68.80
23147;DHT22;11742;53.532;-1.478;2023-05-15T04:43:38;15.10;68.90
23147;DHT22;11742;53.532;-1.478;2023-05-15T04:46:22;15.10;68.90
23147;DHT22;11742;53.532;-1.478;2023-05-15T04:49:07;15.00;68.90
23147;DHT22;11742;53.532;-1.478;2023-05-15T04:51:51;15.00;69.00
23147;DHT22;11742;53.532;-1.478;2023-05-15T04:54:35;15.00;69.00
23147;DHT22;11742;53.532;-1.478;2023-05-15T04:57:19;14.90;69.00
23147;DHT22;11742;53.532;-1.478;2023-05-15T05:00:04;14.90;69.00
23147;DHT22;11742;53.532;-1.478;2023-05-15T05:02:55;14.90;69.00
23147;DHT22;11742;53.532;-1.478;2023-05-15T05:05:39;14.80;68.90
23147;DHT22;11742;53.532;-1.478;2023-05-15T05:08:23;14.80;69.00
23147;DHT22;11742;53.532;-1.478;2023-05-15T05:11:08;14.80;69.00
23147;DHT22;11742;53.532;-1.478;2023-05-15T05:13:52;14.70;69.00
23147;DHT22;11742;53.532;-1.478;2023-05-15T05:16:36;14.70;69.00
23147;DHT22;11742;53.532;-1.478;2023-05-15T05:19:21;14.70;69.10
23147;DHT22;11742;53.532;-1.478;2023-05-15T05:22:05;14.70;69.20
23147;DHT22;11742;53.532;-1.478;2023-05-15T05:24:50;14.70;69.20
23147;DHT22;11742;53.532;-1.478;2023-05-15T05:27:34;14.60;69.20
23147;DHT22;11742;53.532;-1.478;2023-05-15T05:30:18;14.60;69.20
23147;DHT22;11742;53.532;-1.478;2023-05-15T05:33:03;14.60;69.30
23147;DHT22;11742;53.532;-1.478;2023-05-15T05:35:47;14.60;69.30
23147;DHT22;11742;53.532;-1.478;2023-05-15T05:38:31;14.60;69.40
23147;DHT22;11742;53.532;-1.478;2023-05-15T05:41:15;14.60;69.40
23147;DHT22;11742;53.532;-1.478;2023-05-15T05:44:00;14.50;69.40
23147;DHT22;11742;53.532;-1.478;2023-05-15T05:46:44;14.50;69.40
23147;DHT22;11742;53.532;-1.478;2023-05-15T05:49:28;14.50;69.40
23147;DHT22;11742;53.532;-1.478;2023-05-15T05:52:12;14.40;69.50
23147;DHT22;11742;53.532;-1.478;2023-05-15T05:54:57;14.50;69.50
23147;DHT22;11742;53.532;-1.478;2023-05-15T05:57:41;14.40;69.50
23147;DHT22;11742;53.532;-1.478;2023-05-15T06:00:25;14.40;69.60
23147;DHT22;11742;53.532;-1.478;2023-05-15T06:03:10;14.40;69.60
23147;DHT22;11742;53.532;-1.478;2023-05-15T06:05:54;14.40;69.70
23147;DHT22;11742;53.532;-1.478;2023-05-15T06:08:39;14.40;69.70
23147;DHT22;11742;53.532;-1.478;2023-05-15T06:11:23;14.40;69.70
23147;DHT22;11742;53.532;-1.478;2023-05-15T06:14:07;14.40;69.90
23147;DHT22;11742;53.532;-1.478;2023-05-15T06:16:52;14.40;69.90
23147;DHT22;11742;53.532;-1.478;2023-05-15T06:19:36;14.40;70.00
23147;DHT22;11742;53.532;-1.478;2023-05-15T06:22:20;14.40;70.00
23147;DHT22;11742;53.532;-1.478;2023-05-15T06:25:05;14.40;70.00
23147;DHT22;11742;53.532;-1.478;2023-05-15T06:27:49;14.40;70.10
23147;DHT22;11742;53.532;-1.478;2023-05-15T06:30:34;14.40;70.10
23147;DHT22;11742;53.532;-1.478;2023-05-15T06:33:18;14.40;70.20
23147;DHT22;11742;53.532;-1.478;2023-05-15T06:36:04;14.50;70.30
23147;DHT22;11742;53.532;-1.478;2023-05-15T06:38:48;14.40;70.20
23147;DHT22;11742;53.532;-1.478;2023-05-15T06:41:33;14.50;70.40
23147;DHT22;11742;53.532;-1.478;2023-05-15T06:44:17;14.50;70.40
23147;DHT22;11742;53.532;-1.478;2023-05-15T06:47:01;14.50;70.50
23147;DHT22;11742;53.532;-1.478;2023-05-15T06:49:45;14.50;70.60
23147;DHT22;11742;53.532;-1.478;2023-05-15T06:52:30;14.50;70.70
23147;DHT22;11742;53.532;-1.478;2023-05-15T06:55:14;14.60;70.70
23147;DHT22;11742;53.532;-1.478;2023-05-15T06:57:58;14.60;70.70
23147;DHT22;11742;53.532;-1.478;2023-05-15T07:00:42;14.60;70.70
23147;DHT22;11742;53.532;-1.478;2023-05-15T07:03:26;14.70;70.80
23147;DHT22;11742;53.532;-1.478;2023-05-15T07:06:11;14.70;70.80
23147;DHT22;11742;53.532;-1.478;2023-05-15T07:08:55;14.80;70.90
23147;DHT22;11742;53.532;-1.478;2023-05-15T07:11:39;14.70;70.80
23147;DHT22;11742;53.532;-1.478;2023-05-15T07:14:25;14.80;71.00
23147;DHT22;11742;53.532;-1.478;2023-05-15T07:17:09;14.90;71.10
23147;DHT22;11742;53.532;-1.478;2023-05-15T07:19:54;14.90;71.20
23147;DHT22;11742;53.532;-1.478;2023-05-15T07:22:38;15.00;71.40
23147;DHT22;11742;53.532;-1.478;2023-05-15T07:25:23;15.00;71.50
23147;DHT22;11742;53.532;-1.478;2023-05-15T07:28:07;15.10;71.60
23147;DHT22;11742;53.532;-1.478;2023-05-15T07:30:52;15.10;71.70
23147;DHT22;11742;53.532;-1.478;2023-05-15T07:33:36;15.20;71.90
23147;DHT22;11742;53.532;-1.478;2023-05-15T07:36:20;15.30;72.10
23147;DHT22;11742;53.532;-1.478;2023-05-15T07:39:04;15.30;72.20
23147;DHT22;11742;53.532;-1.478;2023-05-15T07:41:49;15.40;72.30
23147;DHT22;11742;53.532;-1.478;2023-05-15T07:44:33;15.50;72.60
23147;DHT22;11742;53.532;-1.478;2023-05-15T07:47:17;15.60;72.50
23147;DHT22;11742;53.532;-1.478;2023-05-15T07:50:02;15.60;72.60
23147;DHT22;11742;53.532;-1.478;2023-05-15T07:52:46;15.70;72.80
23147;DHT22;11742;53.532;-1.478;2023-05-15T07:55:30;15.80;73.00
23147;DHT22;11742;53.532;-1.478;2023-05-15T07:58:14;15.90;73.20
23147;DHT22;11742;53.532;-1.478;2023-05-15T08:01:00;15.90;73.30
23147;DHT22;11742;53.532;-1.478;2023-05-15T08:03:44;16.00;73.40
23147;DHT22;11742;53.532;-1.478;2023-05-15T08:06:28;16.10;73.60
23147;DHT22;11742;53.532;-1.478;2023-05-15T08:09:13;16.20;73.70
23147;DHT22;11742;53.532;-1.478;2023-05-15T08:12:13;16.30;73.90
23147;DHT22;11742;53.532;-1.478;2023-05-15T08:14:57;16.40;74.00
23147;DHT22;11742;53.532;-1.478;2023-05-15T08:17:41;16.40;74.00
23147;DHT22;11742;53.532;-1.478;2023-05-15T08:20:25;16.50;74.10
23147;DHT22;11742;53.532;-1.478;2023-05-15T08:23:10;16.60;74.20
23147;DHT22;11742;53.532;-1.478;2023-05-15T08:25:54;16.70;74.30
23147;DHT22;11742;53.532;-1.478;2023-05-15T08:28:38;16.80;74.30
23147;DHT22;11742;53.532;-1.478;2023-05-15T08:31:22;16.90;74.40
23147;DHT22;11742;53.532;-1.478;2023-05-15T08:34:07;17.00;74.60
23147;DHT22;11742;53.532;-1.478;2023-05-15T08:36:51;17.10;74.60
23147;DHT22;11742;53.532;-1.478;2023-05-15T08:39:35;17.10;74.70
23147;DHT22;11742;53.532;-1.478;2023-05-15T08:42:20;17.20;74.70
23147;DHT22;11742;53.532;-1.478;2023-05-15T08:45:07;17.30;74.70
23147;DHT22;11742;53.532;-1.478;2023-05-15T08:47:52;17.40;74.80
23147;DHT22;11742;53.532;-1.478;2023-05-15T08:50:37;17.50;74.90
23147;DHT22;11742;53.532;-1.478;2023-05-15T08:53:21;17.60;75.00
23147;DHT22;11742;53.532;-1.478;2023-05-15T08:56:05;17.70;75.10
23147;DHT22;11742;53.532;-1.478;2023-05-15T08:58:50;17.80;75.00
23147;DHT22;11742;53.532;-1.478;2023-05-15T09:01:34;17.90;75.10
23147;DHT22;11742;53.532;-1.478;2023-05-15T09:04:19;18.00;75.10
23147;DHT22;11742;53.532;-1.478;2023-05-15T09:07:03;18.10;75.20
23147;DHT22;11742;53.532;-1.478;2023-05-15T09:09:48;18.20;75.30
23147;DHT22;11742;53.532;-1.478;2023-05-15T09:12:33;18.20;75.10
23147;DHT22;11742;53.532;-1.478;2023-05-15T09:15:19;18.30;75.20
23147;DHT22;11742;53.532;-1.478;2023-05-15T09:18:05;18.40;75.10
23147;DHT22;11742;53.532;-1.478;2023-05-15T09:20:50;18.50;75.30
23147;DHT22;11742;53.532;-1.478;2023-05-15T09:23:35;18.60;75.20
23147;DHT22;11742;53.532;-1.478;2023-05-15T09:26:20;18.70;75.20
23147;DHT22;11742;53.532;-1.478;2023-05-15T09:29:04;18.70;75.10
23147;DHT22;11742;53.532;-1.478;2023-05-15T09:31:49;18.80;75.00
23147;DHT22;11742;53.532;-1.478;2023-05-15T09:34:34;18.80;74.80
23147;DHT22;11742;53.532;-1.478;2023-05-15T09:37:29;18.90;74.90
23147;DHT22;11742;53.532;-1.478;2023-05-15T09:40:14;18.90;74.70
23147;DHT22;11742;53.532;-1.478;2023-05-15T09:43:01;19.00;74.70
23147;DHT22;11742;53.532;-1.478;2023-05-15T09:45:46;19.10;74.60
23147;DHT22;11742;53.532;-1.478;2023-05-15T09:48:31;19.10;74.50
23147;DHT22;11742;53.532;-1.478;2023-05-15T09:51:16;19.20;74.60
23147;DHT22;11742;53.532;-1.478;2023-05-15T09:54:01;19.20;74.60
23147;DHT22;11742;53.532;-1.478;2023-05-15T09:56:45;19.30;74.60
23147;DHT22;11742;53.532;-1.478;2023-05-15T09:59:30;19.40;74.50
23147;DHT22;11742;53.532;-1.478;2023-05-15T10:02:25;19.40;74.50
23147;DHT22;11742;53.532;-1.478;2023-05-15T10:05:17;19.50;74.60
23147;DHT22;11742;53.532;-1.478;2023-05-15T10:08:01;19.60;74.70
23147;DHT22;11742;53.532;-1.478;2023-05-15T10:10:46;19.70;74.70
23147;DHT22;11742;53.532;-1.478;2023-05-15T10:13:32;19.70;74.60
23147;DHT22;11742;53.532;-1.478;2023-05-15T10:16:17;19.80;74.60
23147;DHT22;11742;53.532;-1.478;2023-05-15T10:19:03;19.80;74.50
23147;DHT22;11742;53.532;-1.478;2023-05-15T10:21:48;19.80;74.40
23147;DHT22;11742;53.532;-1.478;2023-05-15T10:24:34;19.90;74.40
23147;DHT22;11742;53.532;-1.478;2023-05-15T10:27:19;19.90;74.40
23147;DHT22;11742;53.532;-1.478;2023-05-15T10:30:04;20.00;74.20
23147;DHT22;11742;53.532;-1.478;2023-05-15T10:32:48;20.00;74.20
23147;DHT22;11742;53.532;-1.478;2023-05-15T10:35:33;20.10;74.30
23147;DHT22;11742;53.532;-1.478;2023-05-15T10:38:19;20.20;74.20
23147;DHT22;11742;53.532;-1.478;2023-05-15T10:41:04;20.30;74.30
23147;DHT22;11742;53.532;-1.478;2023-05-15T10:43:49;20.30;74.30
23147;DHT22;11742;53.532;-1.478;2023-05-15T10:46:36;20.40;74.30
23147;DHT22;11742;53.532;-1.478;2023-05-15T10:49:20;20.50;74.40
23147;DHT22;11742;53.532;-1.478;2023-05-15T10:52:04;20.60;74.40
23147;DHT22;11742;53.532;-1.478;2023-05-15T10:54:48;20.60;74.40
23147;DHT22;11742;53.532;-1.478;2023-05-15T10:57:33;20.70;74.40
23147;DHT22;11742;53.532;-1.478;2023-05-15T11:00:23;20.80;74.30
23147;DHT22;11742;53.532;-1.478;2023-05-15T11:03:07;20.90;74.40
23147;DHT22;11742;53.532;-1.478;2023-05-15T11:06:10;20.90;74.40
23147;DHT22;11742;53.532;-1.478;2023-05-15T11:08:54;21.00;74.40
23147;DHT22;11742;53.532;-1.478;2023-05-15T11:11:59;21.00;74.30
23147;DHT22;11742;53.532;-1.478;2023-05-15T11:17:34;21.10;74.20
23147;DHT22;11742;53.532;-1.478;2023-05-15T11:20:18;21.20;74.10
23147;DHT22;11742;53.532;-1.478;2023-05-15T11:23:02;21.30;74.20
23147;DHT22;11742;53.532;-1.478;2023-05-15T11:25:56;21.30;74.10
23147;DHT22;11742;53.532;-1.478;2023-05-15T11:28:41;21.40;74.20
23147;DHT22;11742;53.532;-1.478;2023-05-15T11:31:29;21.50;74.30
23147;DHT22;11742;53.532;-1.478;2023-05-15T11:34:13;21.50;73.40
23147;DHT22;11742;53.532;-1.478;2023-05-15T11:36:58;21.50;71.40
23147;DHT22;11742;53.532;-1.478;2023-05-15T11:39:43;21.50;70.80
23147;DHT22;11742;53.532;-1.478;2023-05-15T11:42:27;21.60;70.60
23147;DHT22;11742;53.532;-1.478;2023-05-15T11:45:12;21.60;72.30
23147;DHT22;11742;53.532;-1.478;2023-05-15T11:47:56;21.60;73.10
23147;DHT22;11742;53.532;-1.478;2023-05-15T11:50:41;21.70;73.40
23147;DHT22;11742;53.532;-1.478;2023-05-15T11:53:25;21.70;72.20
23147;DHT22;11742;53.532;-1.478;2023-05-15T11:56:16;21.70;70.30
23147;DHT22;11742;53.532;-1.478;2023-05-15T11:59:01;21.70;70.20
23147;DHT22;11742;53.532;-1.478;2023-05-15T12:01:45;21.80;70.30
23147;DHT22;11742;53.532;-1.478;2023-05-15T12:04:30;21.80;71.50
23147;DHT22;11742;53.532;-1.478;2023-05-15T12:07:16;21.80;72.10
23147;DHT22;11742;53.532;-1.478;2023-05-15T12:10:01;21.90;72.60
23147;DHT22;11742;53.532;-1.478;2023-05-15T12:12:45;22.00;72.80
23147;DHT22;11742;53.532;-1.478;2023-05-15T12:15:29;22.00;72.20
23147;DHT22;11742;53.532;-1.478;2023-05-15T12:18:13;22.00;71.00
23147;DHT22;11742;53.532;-1.478;2023-05-15T12:20:58;22.10;69.70
23147;DHT22;11742;53.532;-1.478;2023-05-15T12:23:49;22.10;71.00
23147;DHT22;11742;53.532;-1.478;2023-05-15T12:26:33;22.20;72.00
23147;DHT22;11742;53.532;-1.478;2023-05-15T12:29:18;22.20;72.40
23147;DHT22;11742;53.532;-1.478;2023-05-15T12:32:02;22.30;72.50
23147;DHT22;11742;53.532;-1.478;2023-05-15T12:34:47;22.30;72.50
23147;DHT22;11742;53.532;-1.478;2023-05-15T12:37:33;22.30;72.10
23147;DHT22;11742;53.532;-1.478;2023-05-15T12:40:21;22.40;72.00
23147;DHT22;11742;53.532;-1.478;2023-05-15T12:43:06;22.50;72.00
23147;DHT22;11742;53.532;-1.478;2023-05-15T12:45:54;22.50;70.50
23147;DHT22;11742;53.532;-1.478;2023-05-15T12:48:38;22.60;69.20
23147;DHT22;11742;53.532;-1.478;2023-05-15T12:51:23;22.60;67.90
23147;DHT22;11742;53.532;-1.478;2023-05-15T12:54:15;22.70;67.40
23147;DHT22;11742;53.532;-1.478;2023-05-15T12:56:59;22.70;67.40
23147;DHT22;11742;53.532;-1.478;2023-05-15T12:59:43;22.80;67.20
23147;DHT22;11742;53.532;-1.478;2023-05-15T13:02:28;22.80;66.00
23147;DHT22;11742;53.532;-1.478;2023-05-15T13:05:12;22.80;65.80
23147;DHT22;11742;53.532;-1.478;2023-05-15T13:07:58;22.90;66.00
23147;DHT22;11742;53.532;-1.478;2023-05-15T13:10:42;22.90;65.90
23147;DHT22;11742;53.532;-1.478;2023-05-15T13:13:42;22.90;65.20
23147;DHT22;11742;53.532;-1.478;2023-05-15T13:16:27;23.00;64.60
23147;DHT22;11742;53.532;-1.478;2023-05-15T13:19:12;23.00;64.50
23147;DHT22;11742;53.532;-1.478;2023-05-15T13:21:56;23.10;64.40
23147;DHT22;11742;53.532;-1.478;2023-05-15T13:24:44;23.10;64.90
23147;DHT22;11742;53.532;-1.478;2023-05-15T13:27:28;23.20;64.60
23147;DHT22;11742;53.532;-1.478;2023-05-15T13:30:13;23.20;64.20
23147;DHT22;11742;53.532;-1.478;2023-05-15T13:32:57;23.20;65.40
23147;DHT22;11742;53.532;-1.478;2023-05-15T13:35:41;23.20;65.10
23147;DHT22;11742;53.532;-1.478;2023-05-15T13:38:26;23.20;65.10
23147;DHT22;11742;53.532;-1.478;2023-05-15T13:41:10;23.30;64.50
23147;DHT22;11742;53.532;-1.478;2023-05-15T13:43:54;23.30;63.30
23147;DHT22;11742;53.532;-1.478;2023-05-15T13:46:39;23.30;63.30
23147;DHT22;11742;53.532;-1.478;2023-05-15T13:49:23;23.40;63.60
23147;DHT22;11742;53.532;-1.478;2023-05-15T13:52:07;23.40;64.60
23147;DHT22;11742;53.532;-1.478;2023-05-15T13:54:52;23.40;65.10
23147;DHT22;11742;53.532;-1.478;2023-05-15T13:57:37;23.50;64.70
23147;DHT22;11742;53.532;-1.478;2023-05-15T14:00:21;23.40;64.70
23147;DHT22;11742;53.532;-1.478;2023-05-15T14:03:05;23.40;64.70
23147;DHT22;11742;53.532;-1.478;2023-05-15T14:05:50;23.50;64.70
23147;DHT22;11742;53.532;-1.478;2023-05-15T14:08:34;23.50;64.60
23147;DHT22;11742;53.532;-1.478;2023-05-15T14:11:18;23.50;64.40
23147;DHT22;11742;53.532;-1.478;2023-05-15T14:14:05;23.50;63.60
23147;DHT22;11742;53.532;-1.478;2023-05-15T14:16:49;23.50;62.70
23147;DHT22;11742;53.532;-1.478;2023-05-15T14:19:33;23.40;62.30
23147;DHT22;11742;53.532;-1.478;2023-05-15T14:22:18;23.40;62.20
23147;DHT22;11742;53.532;-1.478;2023-05-15T14:25:02;23.40;62.30
23147;DHT22;11742;53.532;-1.478;2023-05-15T14:27:47;23.40;62.50
23147;DHT22;11742;53.532;-1.478;2023-05-15T14:30:31;23.40;62.40
23147;DHT22;11742;53.532;-1.478;2023-05-15T14:33:15;23.50;62.60
23147;DHT22;11742;53.532;-1.478;2023-05-15T14:35:59;23.50;63.50
23147;DHT22;11742;53.532;-1.478;2023-05-15T14:38:44;23.50;64.20
23147;DHT22;11742;53.532;-1.478;2023-05-15T14:41:30;23.50;64.00
23147;DHT22;11742;53.532;-1.478;2023-05-15T14:44:14;23.50;63.70
23147;DHT22;11742;53.532;-1.478;2023-05-15T14:49:49;23.50;62.70
23147;DHT22;11742;53.532;-1.478;2023-05-15T14:52:33;23.50;62.20
23147;DHT22;11742;53.532;-1.478;2023-05-15T14:55:18;23.50;62.10
23147;DHT22;11742;53.532;-1.478;2023-05-15T14:58:05;23.50;61.80
23147;DHT22;11742;53.532;-1.478;2023-05-15T15:00:50;23.50;61.60
23147;DHT22;11742;53.532;-1.478;2023-05-15T15:03:34;23.50;61.60
23147;DHT22;11742;53.532;-1.478;2023-05-15T15:06:18;23.50;61.70
23147;DHT22;11742;53.532;-1.478;2023-05-15T15:09:03;23.50;61.80
23147;DHT22;11742;53.532;-1.478;2023-05-15T15:11:47;23.50;61.40
23147;DHT22;11742;53.532;-1.478;2023-05-15T15:14:31;23.50;61.30
23147;DHT22;11742;53.532;-1.478;2023-05-15T15:17:15;23.40;61.20
23147;DHT22;11742;53.532;-1.478;2023-05-15T15:20:00;23.40;61.00
23147;DHT22;11742;53.532;-1.478;2023-05-15T15:22:44;23.40;60.90
23147;DHT22;11742;53.532;-1.478;2023-05-15T15:25:29;23.40;60.90
23147;DHT22;11742;53.532;-1.478;2023-05-15T15:28:13;23.40;60.80
23147;DHT22;11742;53.532;-1.478;2023-05-15T15:31:01;23.40;60.60
23147;DHT22;11742;53.532;-1.478;2023-05-15T15:33:45;23.40;60.70
23147;DHT22;11742;53.532;-1.478;2023-05-15T15:36:29;23.40;60.70
23147;DHT22;11742;53.532;-1.478;2023-05-15T15:39:14;23.40;60.60
23147;DHT22;11742;53.532;-1.478;2023-05-15T15:41:59;23.40;60.40
23147;DHT22;11742;53.532;-1.478;2023-05-15T15:44:43;23.40;60.60
23147;DHT22;11742;53.532;-1.478;2023-05-15T15:47:27;23.40;60.70
23147;DHT22;11742;53.532;-1.478;2023-05-15T15:50:15;23.30;60.70
23147;DHT22;11742;53.532;-1.478;2023-05-15T15:52:59;23.30;60.50
23147;DHT22;11742;53.532;-1.478;2023-05-15T15:55:43;23.30;60.40
23147;DHT22;11742;53.532;-1.478;2023-05-15T15:58:28;23.30;60.20
23147;DHT22;11742;53.532;-1.478;2023-05-15T16:01:12;23.30;60.20
23147;DHT22;11742;53.532;-1.478;2023-05-15T16:03:56;23.30;60.30
23147;DHT22;11742;53.532;-1.478;2023-05-15T16:06:40;23.30;60.40
23147;DHT22;11742;53.532;-1.478;2023-05-15T16:09:25;23.30;60.50
23147;DHT22;11742;53.532;-1.478;2023-05-15T16:12:09;23.20;60.50
23147;DHT22;11742;53.532;-1.478;2023-05-15T16:14:53;23.20;60.50
23147;DHT22;11742;53.532;-1.478;2023-05-15T16:17:37;23.20;60.40
23147;DHT22;11742;53.532;-1.478;2023-05-15T16:20:22;23.20;60.30
23147;DHT22;11742;53.532;-1.478;2023-05-15T16:23:06;23.20;60.20
23147;DHT22;11742;53.532;-1.478;2023-05-15T16:25:52;23.20;60.30
23147;DHT22;11742;53.532;-1.478;2023-05-15T16:28:36;23.20;60.50
23147;DHT22;11742;53.532;-1.478;2023-05-15T16:31:20;23.20;60.70
23147;DHT22;11742;53.532;-1.478;2023-05-15T16:34:05;23.20;60.80
23147;DHT22;11742;53.532;-1.478;2023-05-15T16:36:49;23.20;60.90
23147;DHT22;11742;53.532;-1.478;2023-05-15T16:39:34;23.10;60.50
23147;DHT22;11742;53.532;-1.478;2023-05-15T16:42:21;23.10;60.60
23147;DHT22;11742;53.532;-1.478;2023-05-15T16:45:06;23.10;60.50
23147;DHT22;11742;53.532;-1.478;2023-05-15T16:47:50;23.10;60.60
23147;DHT22;11742;53.532;-1.478;2023-05-15T16:50:35;23.10;60.90
23147;DHT22;11742;53.532;-1.478;2023-05-15T16:53:20;23.10;61.20
23147;DHT22;11742;53.532;-1.478;2023-05-15T16:56:04;23.10;61.10
23147;DHT22;11742;53.532;-1.478;2023-05-15T16:58:49;23.10;61.30
23147;DHT22;11742;53.532;-1.478;2023-05-15T17:01:33;23.10;61.20
23147;DHT22;11742;53.532;-1.478;2023-05-15T17:04:17;23.10;61.30
23147;DHT22;11742;53.532;-1.478;2023-05-15T17:07:02;23.10;61.40
23147;DHT22;11742;53.532;-1.478;2023-05-15T17:09:46;23.10;61.60
23147;DHT22;11742;53.532;-1.478;2023-05-15T17:12:31;23.10;61.50
23147;DHT22;11742;53.532;-1.478;2023-05-15T17:15:15;23.10;61.60
23147;DHT22;11742;53.532;-1.478;2023-05-15T17:17:59;23.10;61.30
23147;DHT22;11742;53.532;-1.478;2023-05-15T17:20:43;23.10;61.50
23147;DHT22;11742;53.532;-1.478;2023-05-15T17:23:28;23.10;61.80
23147;DHT22;11742;53.532;-1.478;2023-05-15T17:26:12;23.10;61.80